Time;durP1;ratioP1;P1;durP2;ratioP2;P2;SDS_P1;SDS_P2;PMS_P1;PMS_P2;Temp;Humidity;BMP_temperature;BMP_pressure;BME280_temperature;BME280_humidity;BME280_pressure;Samples;Min_cycle;Max_cycle;Signal;HPM_P1;HPM_P2
2023/05/06 00:01:14;;;;;;;22.60;14.57;;;;;;;;;;5071023;28;20560;-45
2023/05/06 00:03:40;;;;;;;32.70;15.60;;;;;;;;;;5070785;28;20912;-44
2023/05/06 00:06:08;;;;;;;27.27;15.10;;;;;;;;;;5049412;28;20433;-44
2023/05/06 00:08:34;;;;;;;31.20;17.10;;;;;;;;;;5050900;28;20428;-43
2023/05/06 00:11:00;;;;;;;36.93;16.40;;;;;;;;;;5050834;28;20455;-44
2023/05/06 00:13:26;;;;;;;39.90;18.50;;;;;;;;;;5048437;28;20423;-44
2023/05/06 00:15:52;;;;;;;29.63;16.30;;;;;;;;;;5051137;27;20405;-45
2023/05/06 00:18:21;;;;;;;34.80;16.77;;;;;;;;;;5050774;28;20430;-44
2023/05/06 00:20:47;;;;;;;37.73;19.20;;;;;;;;;;5050663;28;20460;-44
2023/05/06 00:23:13;;;;;;;33.83;18.60;;;;;;;;;;5050588;28;20422;-44
2023/05/06 00:25:38;;;;;;;59.80;18.37;;;;;;;;;;5050782;27;20409;-44
2023/05/06 00:28:04;;;;;;;31.97;18.13;;;;;;;;;;5050602;28;20448;-45
2023/05/06 00:30:30;;;;;;;33.43;17.87;;;;;;;;;;5049027;27;20425;-45
2023/05/06 00:32:56;;;;;;;32.00;17.90;;;;;;;;;;5065220;28;21039;-44
2023/05/06 00:35:22;;;;;;;28.43;17.70;;;;;;;;;;5057577;28;20438;-44
2023/05/06 00:37:56;;;;;;;30.73;18.13;;;;;;;;;;5056473;28;20432;-43
2023/05/06 00:40:22;;;;;;;34.50;17.10;;;;;;;;;;5045476;28;20413;-46
2023/05/06 00:42:48;;;;;;;36.00;17.83;;;;;;;;;;5058346;28;20504;-44
2023/05/06 00:45:13;;;;;;;28.50;16.20;;;;;;;;;;5058820;28;20413;-44
2023/05/06 00:47:40;;;;;;;24.23;14.57;;;;;;;;;;5052431;28;20419;-44
2023/05/06 00:50:06;;;;;;;25.10;14.90;;;;;;;;;;5057358;28;20593;-44
2023/05/06 00:52:32;;;;;;;33.00;18.40;;;;;;;;;;5059557;28;20532;-44
2023/05/06 00:54:58;;;;;;;40.43;20.90;;;;;;;;;;5055279;28;20772;-44
2023/05/06 00:57:24;;;;;;;28.47;17.00;;;;;;;;;;5057392;28;20410;-44
2023/05/06 00:59:50;;;;;;;40.93;21.83;;;;;;;;;;5058471;27;20767;-44
2023/05/06 01:02:16;;;;;;;37.33;21.30;;;;;;;;;;5061086;28;20442;-44
2023/05/06 01:04:42;;;;;;;41.83;21.23;;;;;;;;;;5057584;28;20465;-44
2023/05/06 01:07:16;;;;;;;40.97;21.17;;;;;;;;;;5055606;28;20467;-44
2023/05/06 01:09:46;;;;;;;42.37;22.67;;;;;;;;;;5057230;28;20527;-44
2023/05/06 01:12:31;;;;;;;38.73;20.43;;;;;;;;;;5053392;28;20464;-45
2023/05/06 01:15:20;;;;;;;35.80;19.13;;;;;;;;;;5060397;28;20428;-44
2023/05/06 01:17:48;;;;;;;39.50;21.70;;;;;;;;;;5062767;28;20816;-44
2023/05/06 01:20:16;;;;;;;34.00;19.30;;;;;;;;;;5048830;28;20420;-43
2023/05/06 01:22:42;;;;;;;40.67;21.37;;;;;;;;;;5056123;28;20900;-44
2023/05/06 01:25:18;;;;;;;35.13;19.90;;;;;;;;;;5063234;28;20487;-44
2023/05/06 01:27:44;;;;;;;35.73;19.13;;;;;;;;;;5057777;28;20405;-44
2023/05/06 01:30:10;;;;;;;35.77;19.80;;;;;;;;;;5060710;28;20488;-46
2023/05/06 01:32:43;;;;;;;40.63;20.90;;;;;;;;;;5059794;28;20454;-46
2023/05/06 01:35:12;;;;;;;37.10;19.67;;;;;;;;;;5061544;28;20417;-44
2023/05/06 01:37:46;;;;;;;34.20;18.30;;;;;;;;;;5057454;28;20420;-45
2023/05/06 01:40:12;;;;;;;30.23;18.00;;;;;;;;;;5052567;28;20424;-44
2023/05/06 01:42:39;;;;;;;35.67;19.57;;;;;;;;;;5060689;28;20412;-43
2023/05/06 01:45:06;;;;;;;35.37;19.00;;;;;;;;;;5058116;28;20496;-45
2023/05/06 01:47:33;;;;;;;28.87;18.27;;;;;;;;;;5058797;28;20412;-43
2023/05/06 01:49:59;;;;;;;28.07;15.37;;;;;;;;;;5058800;28;20443;-44
2023/05/06 01:52:26;;;;;;;26.87;15.17;;;;;;;;;;5058098;28;20817;-45
2023/05/06 01:54:51;;;;;;;26.00;16.50;;;;;;;;;;5057873;28;20447;-44
2023/05/06 01:57:17;;;;;;;22.90;14.77;;;;;;;;;;5057206;28;20410;-44
2023/05/06 01:59:43;;;;;;;27.53;16.50;;;;;;;;;;5062115;28;20493;-44
2023/05/06 02:02:09;;;;;;;33.33;17.80;;;;;;;;;;5056261;28;20416;-44
2023/05/06 02:04:35;;;;;;;31.97;16.77;;;;;;;;;;5056542;28;20429;-44
2023/05/06 02:07:01;;;;;;;28.33;15.83;;;;;;;;;;5056243;28;20837;-44
2023/05/06 02:09:27;;;;;;;34.80;16.73;;;;;;;;;;5057261;28;20807;-45
2023/05/06 02:11:53;;;;;;;35.90;19.00;;;;;;;;;;5057535;28;20483;-45
2023/05/06 02:14:19;;;;;;;33.70;18.70;;;;;;;;;;5061661;28;20476;-43
2023/05/06 02:16:45;;;;;;;36.53;19.20;;;;;;;;;;5060723;28;20409;-44
2023/05/06 02:19:11;;;;;;;31.97;16.40;;;;;;;;;;5054346;28;20417;-44
2023/05/06 02:21:37;;;;;;;29.93;17.20;;;;;;;;;;5054750;28;20413;-44
2023/05/06 02:24:03;;;;;;;36.70;19.40;;;;;;;;;;5056679;28;20444;-45
2023/05/06 02:26:29;;;;;;;32.30;17.57;;;;;;;;;;5060303;28;20408;-45
2023/05/06 02:28:55;;;;;;;37.43;19.00;;;;;;;;;;5058112;28;20452;-45
2023/05/06 02:31:21;;;;;;;32.27;17.80;;;;;;;;;;5051515;28;20492;-44
2023/05/06 02:33:47;;;;;;;38.87;18.73;;;;;;;;;;5056631;28;20456;-43
2023/05/06 02:36:13;;;;;;;38.57;17.77;;;;;;;;;;5048693;28;20806;-44
2023/05/06 02:38:39;;;;;;;30.17;17.00;;;;;;;;;;5053274;28;20424;-44
2023/05/06 02:41:05;;;;;;;31.50;17.57;;;;;;;;;;5058734;28;20409;-44
2023/05/06 02:43:31;;;;;;;34.67;18.07;;;;;;;;;;5057050;28;20460;-45
2023/05/06 02:45:57;;;;;;;30.70;17.13;;;;;;;;;;5058173;28;20412;-44
2023/05/06 02:48:23;;;;;;;33.10;15.93;;;;;;;;;;5054008;28;20420;-44
2023/05/06 02:50:50;;;;;;;30.90;16.00;;;;;;;;;;5059791;28;20459;-45
2023/05/06 02:53:16;;;;;;;28.53;15.03;;;;;;;;;;5056751;28;20519;-44
2023/05/06 02:55:42;;;;;;;33.23;18.37;;;;;;;;;;5055676;28;20414;-45
2023/05/06 02:58:08;;;;;;;30.90;16.67;;;;;;;;;;5058021;28;20411;-44
2023/05/06 03:00:35;;;;;;;31.17;17.00;;;;;;;;;;5056686;28;20411;-44
2023/05/06 03:03:01;;;;;;;28.80;15.40;;;;;;;;;;5057786;28;20484;-44
2023/05/06 03:05:27;;;;;;;39.07;17.93;;;;;;;;;;5061677;28;20432;-44
2023/05/06 03:07:54;;;;;;;29.27;15.97;;;;;;;;;;5055388;27;20436;-44
2023/05/06 03:10:20;;;;;;;27.77;17.10;;;;;;;;;;5059648;28;20818;-44
2023/05/06 03:12:45;;;;;;;30.73;17.60;;;;;;;;;;5053607;28;20460;-44
2023/05/06 03:15:12;;;;;;;27.60;14.73;;;;;;;;;;5056686;28;20480;-45
2023/05/06 03:17:37;;;;;;;33.20;15.77;;;;;;;;;;5056336;28;20398;-44
2023/05/06 03:20:04;;;;;;;33.93;16.90;;;;;;;;;;5059823;28;20425;-44
2023/05/06 03:22:30;;;;;;;25.53;15.43;;;;;;;;;;5062183;28;20410;-44
2023/05/06 03:24:56;;;;;;;27.43;15.87;;;;;;;;;;5062174;28;20481;-44
2023/05/06 03:27:22;;;;;;;25.63;15.20;;;;;;;;;;5063043;28;20771;-45
2023/05/06 03:29:48;;;;;;;29.30;16.50;;;;;;;;;;5055134;28;20405;-45
2023/05/06 03:32:14;;;;;;;28.53;15.40;;;;;;;;;;5062986;27;21063;-44
2023/05/06 03:34:40;;;;;;;24.87;14.50;;;;;;;;;;5060814;28;20984;-44
2023/05/06 03:37:06;;;;;;;27.80;15.50;;;;;;;;;;5058351;28;20427;-44
2023/05/06 03:39:32;;;;;;;27.77;15.47;;;;;;;;;;5058504;28;20433;-44
2023/05/06 03:41:58;;;;;;;27.30;15.90;;;;;;;;;;5061055;28;20416;-45
2023/05/06 03:44:24;;;;;;;27.67;15.40;;;;;;;;;;5055840;28;20432;-44
2023/05/06 03:46:50;;;;;;;23.93;15.50;;;;;;;;;;5062435;28;20416;-45
2023/05/06 03:49:16;;;;;;;25.27;14.20;;;;;;;;;;5059819;28;20405;-46
2023/05/06 03:51:42;;;;;;;24.03;14.30;;;;;;;;;;5058717;28;20547;-44
2023/05/06 03:54:08;;;;;;;26.47;15.80;;;;;;;;;;5060681;28;20432;-45
2023/05/06 03:56:34;;;;;;;28.77;14.90;;;;;;;;;;5059407;28;20401;-44
2023/05/06 03:59:00;;;;;;;24.33;13.00;;;;;;;;;;5059249;28;20404;-44
2023/05/06 04:01:27;;;;;;;27.40;14.67;;;;;;;;;;5059081;28;20791;-44
2023/05/06 04:03:53;;;;;;;28.60;16.13;;;;;;;;;;5063981;28;20487;-44
2023/05/06 04:06:19;;;;;;;31.50;15.90;;;;;;;;;;5057519;28;20825;-45
2023/05/06 04:08:45;;;;;;;32.27;16.53;;;;;;;;;;5056279;28;20500;-45
2023/05/06 04:11:12;;;;;;;27.13;16.70;;;;;;;;;;5059393;28;20461;-44
2023/05/06 04:13:38;;;;;;;42.23;17.07;;;;;;;;;;5058746;28;20417;-45
2023/05/06 04:16:04;;;;;;;29.97;15.33;;;;;;;;;;5061116;28;20412;-45
2023/05/06 04:18:31;;;;;;;34.50;16.80;;;;;;;;;;5061616;28;20783;-45
2023/05/06 04:20:58;;;;;;;29.53;16.23;;;;;;;;;;5062359;28;20424;-44
2023/05/06 04:23:26;;;;;;;33.30;17.67;;;;;;;;;;5057068;28;20425;-44
2023/05/06 04:25:52;;;;;;;38.70;18.03;;;;;;;;;;5052064;28;20420;-44
2023/05/06 04:28:20;;;;;;;31.43;16.07;;;;;;;;;;5062038;28;20488;-44
2023/05/06 04:30:46;;;;;;;34.90;16.90;;;;;;;;;;5061704;28;20411;-44
2023/05/06 04:33:12;;;;;;;39.73;19.80;;;;;;;;;;5070740;28;20412;-44
2023/05/06 04:35:39;;;;;;;31.97;18.93;;;;;;;;;;5058788;28;20440;-44
2023/05/06 04:38:05;;;;;;;29.33;16.63;;;;;;;;;;5050157;28;20412;-45
2023/05/06 04:40:32;;;;;;;32.63;17.37;;;;;;;;;;5050568;28;20402;-45
2023/05/06 04:42:58;;;;;;;38.90;20.57;;;;;;;;;;5048875;28;20436;-44
2023/05/06 04:45:24;;;;;;;31.07;16.67;;;;;;;;;;5050453;28;20868;-44
2023/05/06 04:47:51;;;;;;;33.07;18.87;;;;;;;;;;5050371;28;20394;-43
2023/05/06 04:50:17;;;;;;;33.53;15.63;;;;;;;;;;5050400;28;20457;-45
2023/05/06 04:52:43;;;;;;;30.73;17.27;;;;;;;;;;5050405;27;20797;-46
2023/05/06 04:55:10;;;;;;;29.57;17.23;;;;;;;;;;5049752;28;20477;-44
2023/05/06 04:57:35;;;;;;;31.67;16.67;;;;;;;;;;5050123;28;20397;-45
2023/05/06 05:00:03;;;;;;;33.50;17.20;;;;;;;;;;5050675;28;20406;-44
2023/05/06 05:02:29;;;;;;;31.80;18.73;;;;;;;;;;5049876;28;20881;-44
2023/05/06 05:04:54;;;;;;;33.27;19.00;;;;;;;;;;5050047;28;20432;-44
2023/05/06 05:07:20;;;;;;;36.00;18.90;;;;;;;;;;5047701;28;20436;-45
2023/05/06 05:09:46;;;;;;;31.10;18.73;;;;;;;;;;5050211;28;20505;-44
2023/05/06 05:12:12;;;;;;;34.77;18.53;;;;;;;;;;5049831;28;20956;-46
2023/05/06 05:14:38;;;;;;;34.63;19.30;;;;;;;;;;5049752;28;20457;-44
2023/05/06 05:17:04;;;;;;;38.07;20.70;;;;;;;;;;5049934;28;20407;-45
2023/05/06 05:19:30;;;;;;;42.17;20.63;;;;;;;;;;5049583;28;20417;-44
2023/05/06 05:21:56;;;;;;;36.60;18.43;;;;;;;;;;5049819;28;20410;-44
2023/05/06 05:24:22;;;;;;;31.33;16.47;;;;;;;;;;5049546;28;20464;-45
2023/05/06 05:26:48;;;;;;;31.43;17.00;;;;;;;;;;5049732;28;20410;-44
2023/05/06 05:29:14;;;;;;;31.97;16.60;;;;;;;;;;5049740;28;20401;-45
2023/05/06 05:31:40;;;;;;;27.70;16.80;;;;;;;;;;5049634;28;20460;-44
2023/05/06 05:34:06;;;;;;;30.43;18.17;;;;;;;;;;5047865;28;20449;-44
2023/05/06 05:36:34;;;;;;;37.53;20.60;;;;;;;;;;5059223;28;20515;-44
2023/05/06 05:39:00;;;;;;;36.53;19.37;;;;;;;;;;5056574;27;20418;-44
2023/05/06 05:41:25;;;;;;;34.77;17.87;;;;;;;;;;5058582;28;20917;-46
2023/05/06 05:43:52;;;;;;;29.87;16.67;;;;;;;;;;5056740;28;20460;-44
2023/05/06 05:46:17;;;;;;;25.70;15.07;;;;;;;;;;5058256;28;20443;-44
2023/05/06 05:48:43;;;;;;;30.57;16.17;;;;;;;;;;5057795;28;20445;-43
2023/05/06 05:51:10;;;;;;;32.90;18.13;;;;;;;;;;5065871;28;21061;-44
2023/05/06 05:53:36;;;;;;;29.93;16.53;;;;;;;;;;5060578;28;20971;-44
2023/05/06 05:56:03;;;;;;;26.97;15.97;;;;;;;;;;5055606;28;20450;-44
2023/05/06 05:58:28;;;;;;;33.63;16.37;;;;;;;;;;5056316;28;20581;-45
2023/05/06 06:00:55;;;;;;;32.13;18.57;;;;;;;;;;5057422;28;20925;-45
2023/05/06 06:03:20;;;;;;;30.30;16.23;;;;;;;;;;5059350;28;20418;-44
2023/05/06 06:05:48;;;;;;;27.70;15.77;;;;;;;;;;5058487;28;20420;-45
2023/05/06 06:08:17;;;;;;;31.43;18.00;;;;;;;;;;5052577;27;20786;-45
2023/05/06 06:10:43;;;;;;;26.13;16.87;;;;;;;;;;5060344;28;20423;-44
2023/05/06 06:13:09;;;;;;;29.20;15.60;;;;;;;;;;5053353;28;20794;-45
2023/05/06 06:15:35;;;;;;;25.50;14.50;;;;;;;;;;5060408;28;20766;-44
2023/05/06 06:18:01;;;;;;;25.57;14.80;;;;;;;;;;5058248;28;20859;-44
2023/05/06 06:20:27;;;;;;;30.00;15.73;;;;;;;;;;5059656;28;20463;-45
2023/05/06 06:22:53;;;;;;;25.50;15.13;;;;;;;;;;5057510;28;20835;-44
2023/05/06 06:25:20;;;;;;;31.50;17.40;;;;;;;;;;5059156;28;20406;-44
2023/05/06 06:27:46;;;;;;;22.40;14.33;;;;;;;;;;5053682;28;20468;-45
2023/05/06 06:30:12;;;;;;;24.03;14.83;;;;;;;;;;5064921;28;20419;-46
2023/05/06 06:32:47;;;;;;;27.47;16.30;;;;;;;;;;5061145;28;20485;-44
2023/05/06 06:35:12;;;;;;;21.90;14.77;;;;;;;;;;5056687;28;20402;-45
2023/05/06 06:37:38;;;;;;;23.67;15.80;;;;;;;;;;5055340;28;20510;-46
2023/05/06 06:40:05;;;;;;;33.93;16.10;;;;;;;;;;5054455;28;20399;-44
2023/05/06 06:42:31;;;;;;;26.03;17.10;;;;;;;;;;5050596;28;21029;-45
2023/05/06 06:44:59;;;;;;;24.67;15.90;;;;;;;;;;5056505;28;20521;-44
2023/05/06 06:47:25;;;;;;;22.97;13.10;;;;;;;;;;5061691;28;20421;-44
2023/05/06 06:49:51;;;;;;;21.17;12.43;;;;;;;;;;5059795;28;20409;-44
2023/05/06 06:52:16;;;;;;;22.10;14.00;;;;;;;;;;5055126;28;20610;-44
2023/05/06 06:54:43;;;;;;;19.27;12.77;;;;;;;;;;5056394;28;20489;-44
2023/05/06 06:57:09;;;;;;;25.50;14.37;;;;;;;;;;5062912;27;20430;-44
2023/05/06 06:59:35;;;;;;;19.90;12.50;;;;;;;;;;5062298;28;20983;-46
2023/05/06 07:02:01;;;;;;;19.73;11.90;;;;;;;;;;5061767;28;20439;-45
2023/05/06 07:04:28;;;;;;;18.73;12.03;;;;;;;;;;5062709;28;20452;-45
2023/05/06 07:06:55;;;;;;;16.03;11.70;;;;;;;;;;5055224;28;20424;-44
2023/05/06 07:09:21;;;;;;;18.00;12.73;;;;;;;;;;5062933;28;20941;-45
2023/05/06 07:11:47;;;;;;;27.37;15.90;;;;;;;;;;5063263;28;20434;-44
2023/05/06 07:14:14;;;;;;;27.37;14.63;;;;;;;;;;5061107;28;20491;-44
2023/05/06 07:16:40;;;;;;;18.97;13.50;;;;;;;;;;5060947;28;20379;-44
2023/05/06 07:19:06;;;;;;;22.00;14.30;;;;;;;;;;5062309;28;20425;-45
2023/05/06 07:21:32;;;;;;;21.67;14.00;;;;;;;;;;5060469;28;20392;-47
2023/05/06 07:23:58;;;;;;;17.97;12.90;;;;;;;;;;5060952;28;20432;-44
2023/05/06 07:26:26;;;;;;;24.40;14.00;;;;;;;;;;5059695;28;20394;-44
2023/05/06 07:28:52;;;;;;;21.60;12.20;;;;;;;;;;5063119;28;20408;-44
2023/05/06 07:31:21;;;;;;;17.17;12.23;;;;;;;;;;5060480;28;20460;-45
2023/05/06 07:33:48;;;;;;;16.00;12.13;;;;;;;;;;5062469;28;20505;-44
2023/05/06 07:36:14;;;;;;;16.90;12.87;;;;;;;;;;5059350;28;20567;-44
2023/05/06 07:38:40;;;;;;;17.47;12.10;;;;;;;;;;5051264;28;20498;-44
2023/05/06 07:41:06;;;;;;;17.10;12.23;;;;;;;;;;5051329;28;20380;-44
2023/05/06 07:43:32;;;;;;;15.57;11.17;;;;;;;;;;5050858;28;20424;-45
2023/05/06 07:46:03;;;;;;;14.83;12.17;;;;;;;;;;5051430;28;20409;-44
2023/05/06 07:48:29;;;;;;;15.77;10.60;;;;;;;;;;5051440;28;20808;-44
2023/05/06 07:50:55;;;;;;;14.47;9.27;;;;;;;;;;5049160;28;20426;-47
2023/05/06 07:53:21;;;;;;;10.40;8.07;;;;;;;;;;5050295;28;20449;-44
2023/05/06 07:55:47;;;;;;;9.80;8.33;;;;;;;;;;5051172;28;20877;-44
2023/05/06 07:58:14;;;;;;;10.50;8.37;;;;;;;;;;5051233;28;20755;-46
2023/05/06 08:00:40;;;;;;;10.83;7.50;;;;;;;;;;5051204;28;20389;-45
2023/05/06 08:03:06;;;;;;;10.70;7.97;;;;;;;;;;5050869;28;20508;-46
2023/05/06 08:05:32;;;;;;;10.60;7.10;;;;;;;;;;5050438;28;20808;-44
2023/05/06 08:07:58;;;;;;;8.63;6.97;;;;;;;;;;5050960;28;20446;-46
2023/05/06 08:10:24;;;;;;;8.27;7.23;;;;;;;;;;5050976;28;20402;-45
2023/05/06 08:12:50;;;;;;;9.00;6.90;;;;;;;;;;5047667;28;20464;-45
2023/05/06 08:15:16;;;;;;;11.33;7.23;;;;;;;;;;5050730;28;20405;-45
2023/05/06 08:17:42;;;;;;;8.07;7.07;;;;;;;;;;5050640;28;20402;-44
2023/05/06 08:20:09;;;;;;;10.00;7.83;;;;;;;;;;5050821;28;20923;-44
2023/05/06 08:22:35;;;;;;;9.90;7.83;;;;;;;;;;5050722;28;20413;-44
2023/05/06 08:25:04;;;;;;;9.37;8.47;;;;;;;;;;5050708;28;20429;-44
2023/05/06 08:27:31;;;;;;;6.93;5.47;;;;;;;;;;5050693;28;20398;-46
2023/05/06 08:29:58;;;;;;;7.30;5.20;;;;;;;;;;5050771;28;20913;-45
2023/05/06 08:32:24;;;;;;;7.93;6.17;;;;;;;;;;5048669;28;20831;-45
2023/05/06 08:34:50;;;;;;;5.67;5.17;;;;;;;;;;5050673;28;20528;-46
2023/05/06 08:37:16;;;;;;;8.00;5.40;;;;;;;;;;5049385;27;20432;-46
2023/05/06 08:39:44;;;;;;;8.00;5.00;;;;;;;;;;5050516;28;20457;-46
2023/05/06 08:42:11;;;;;;;7.97;5.40;;;;;;;;;;5050534;28;20822;-45
2023/05/06 08:44:37;;;;;;;8.60;5.33;;;;;;;;;;5050073;28;20421;-45
2023/05/06 08:47:03;;;;;;;4.77;4.27;;;;;;;;;;5050320;28;20408;-45
2023/05/06 08:49:29;;;;;;;8.07;5.80;;;;;;;;;;5050342;28;20469;-45
2023/05/06 08:51:55;;;;;;;8.50;5.27;;;;;;;;;;5050190;28;20793;-45
2023/05/06 08:54:26;;;;;;;8.27;5.07;;;;;;;;;;5050168;28;20422;-45
2023/05/06 08:56:53;;;;;;;8.10;5.93;;;;;;;;;;5050148;28;20440;-46
2023/05/06 08:59:23;;;;;;;7.07;5.50;;;;;;;;;;5050131;28;20402;-47
2023/05/06 09:01:49;;;;;;;5.93;4.73;;;;;;;;;;5050157;28;20434;-45
2023/05/06 09:04:16;;;;;;;5.50;4.90;;;;;;;;;;5049890;28;20871;-45
2023/05/06 09:06:42;;;;;;;6.93;6.03;;;;;;;;;;5050011;28;20908;-45
2023/05/06 09:09:07;;;;;;;5.63;5.03;;;;;;;;;;5047873;28;20444;-45
2023/05/06 09:11:39;;;;;;;5.40;4.70;;;;;;;;;;5049278;28;20461;-45
2023/05/06 09:14:12;;;;;;;5.97;4.77;;;;;;;;;;5049801;28;20904;-45
2023/05/06 09:16:42;;;;;;;5.00;4.53;;;;;;;;;;5049852;28;20406;-45
2023/05/06 09:19:08;;;;;;;5.27;4.17;;;;;;;;;;5049800;28;20410;-45
2023/05/06 09:21:35;;;;;;;6.63;4.93;;;;;;;;;;5049878;28;20907;-45
2023/05/06 09:24:02;;;;;;;4.10;3.70;;;;;;;;;;5049429;28;20425;-46
2023/05/06 09:26:30;;;;;;;3.97;3.50;;;;;;;;;;5049848;28;20726;-45
2023/05/06 09:28:56;;;;;;;4.30;3.57;;;;;;;;;;5049654;28;20492;-47
2023/05/06 09:31:22;;;;;;;3.37;3.00;;;;;;;;;;5049637;28;20828;-46
2023/05/06 09:33:50;;;;;;;4.27;3.70;;;;;;;;;;5049275;28;20417;-47
2023/05/06 09:36:16;;;;;;;4.83;4.33;;;;;;;;;;5049756;28;20393;-45
2023/05/06 09:38:42;;;;;;;7.00;3.70;;;;;;;;;;5047310;28;20426;-45
2023/05/06 09:41:08;;;;;;;5.13;4.60;;;;;;;;;;5049063;28;20409;-45
2023/05/06 09:43:36;;;;;;;3.33;3.00;;;;;;;;;;5049282;28;20500;-45
2023/05/06 09:46:04;;;;;;;4.10;3.60;;;;;;;;;;5049501;28;20409;-45
2023/05/06 09:48:31;;;;;;;5.07;2.90;;;;;;;;;;5049416;28;20786;-44
2023/05/06 09:50:57;;;;;;;8.33;3.20;;;;;;;;;;5049342;28;20415;-45
2023/05/06 09:53:23;;;;;;;6.90;3.47;;;;;;;;;;5048918;28;20417;-45
2023/05/06 09:55:50;;;;;;;4.23;2.70;;;;;;;;;;5049330;28;20824;-45
2023/05/06 09:58:17;;;;;;;4.33;3.30;;;;;;;;;;5049169;28;20401;-44
2023/05/06 10:00:43;;;;;;;6.07;2.83;;;;;;;;;;5049327;28;20397;-45
2023/05/06 10:03:10;;;;;;;4.70;3.23;;;;;;;;;;5048906;28;20428;-46
2023/05/06 10:05:37;;;;;;;4.20;3.20;;;;;;;;;;5049222;28;20911;-44
2023/05/06 10:08:03;;;;;;;2.97;2.60;;;;;;;;;;5049001;28;20405;-44
2023/05/06 10:10:30;;;;;;;4.13;2.93;;;;;;;;;;5046345;28;20433;-45
2023/05/06 10:12:56;;;;;;;5.40;2.70;;;;;;;;;;5048873;28;20832;-44
2023/05/06 10:15:23;;;;;;;2.20;2.00;;;;;;;;;;5049137;28;20916;-44
2023/05/06 10:17:51;;;;;;;2.80;2.50;;;;;;;;;;5048975;28;20401;-45
2023/05/06 10:20:18;;;;;;;3.80;2.37;;;;;;;;;;5048775;28;20420;-45
2023/05/06 10:22:52;;;;;;;2.90;2.13;;;;;;;;;;5048735;28;20405;-44
2023/05/06 10:25:33;;;;;;;4.93;3.00;;;;;;;;;;5049007;28;20420;-45
2023/05/06 10:28:00;;;;;;;2.90;2.03;;;;;;;;;;5048484;28;20402;-45
2023/05/06 10:30:26;;;;;;;2.67;2.10;;;;;;;;;;5042121;28;20422;-45
2023/05/06 10:32:54;;;;;;;3.93;2.37;;;;;;;;;;5035276;28;20461;-45
2023/05/06 10:35:40;;;;;;;3.60;2.53;;;;;;;;;;5028894;28;20486;-45
2023/05/06 10:38:09;;;;;;;3.67;2.53;;;;;;;;;;5028666;28;20386;-44
2023/05/06 10:40:36;;;;;;;3.53;2.80;;;;;;;;;;5039891;28;20432;-44
2023/05/06 10:43:20;;;;;;;4.43;2.90;;;;;;;;;;5048283;28;20908;-44
2023/05/06 10:45:59;;;;;;;2.47;2.20;;;;;;;;;;5048834;28;20401;-44
2023/05/06 10:48:26;;;;;;;3.60;2.47;;;;;;;;;;5048320;28;20405;-47
2023/05/06 10:51:12;;;;;;;4.30;2.53;;;;;;;;;;5048617;28;20484;-45
2023/05/06 10:53:57;;;;;;;3.63;2.67;;;;;;;;;;5048020;28;20428;-47
2023/05/06 10:56:23;;;;;;;4.27;2.33;;;;;;;;;;5048774;28;20397;-45
2023/05/06 10:58:49;;;;;;;3.23;2.43;;;;;;;;;;5048358;28;20402;-44
2023/05/06 11:01:15;;;;;;;3.40;2.27;;;;;;;;;;5048511;28;21280;-44
2023/05/06 11:03:42;;;;;;;5.77;3.03;;;;;;;;;;5048174;28;20421;-44
2023/05/06 11:06:08;;;;;;;4.60;3.13;;;;;;;;;;5048326;28;20397;-44
2023/05/06 11:08:34;;;;;;;4.13;2.40;;;;;;;;;;5048443;28;20414;-44
2023/05/06 11:11:03;;;;;;;3.17;2.50;;;;;;;;;;5047162;27;20432;-44
2023/05/06 11:13:34;;;;;;;5.33;2.93;;;;;;;;;;5047343;28;20445;-44
2023/05/06 11:16:01;;;;;;;7.77;4.43;;;;;;;;;;5046793;28;20397;-44
2023/05/06 11:18:35;;;;;;;3.57;2.83;;;;;;;;;;5039166;28;20410;-44
2023/05/06 11:21:01;;;;;;;4.70;2.93;;;;;;;;;;5028294;28;20413;-44
2023/05/06 11:23:43;;;;;;;2.20;2.00;;;;;;;;;;5028086;28;20421;-44
2023/05/06 11:26:10;;;;;;;5.97;3.80;;;;;;;;;;5028334;28;20430;-44
2023/05/06 11:28:37;;;;;;;8.70;8.10;;;;;;;;;;5028216;28;20534;-44
2023/05/06 11:31:03;;;;;;;11.00;10.43;;;;;;;;;;5028312;28;20477;-46
2023/05/06 11:33:33;;;;;;;3.07;2.30;;;;;;;;;;5027990;28;20426;-44
2023/05/06 11:36:00;;;;;;;2.73;2.37;;;;;;;;;;5028123;28;20423;-46
2023/05/06 11:38:27;;;;;;;3.00;2.20;;;;;;;;;;5028299;28;20900;-46
2023/05/06 11:40:53;;;;;;;2.50;2.07;;;;;;;;;;5046642;28;20967;-45
2023/05/06 11:43:19;;;;;;;3.33;2.80;;;;;;;;;;5050393;28;20532;-44
2023/05/06 11:45:49;;;;;;;3.70;2.77;;;;;;;;;;5051236;28;20311;-45
2023/05/06 11:48:16;;;;;;;2.70;2.17;;;;;;;;;;5051248;28;20763;-44
2023/05/06 11:50:46;;;;;;;4.50;2.33;;;;;;;;;;5049970;28;20406;-44
2023/05/06 11:53:12;;;;;;;2.73;2.20;;;;;;;;;;5050905;28;20460;-44
2023/05/06 11:55:38;;;;;;;2.53;1.90;;;;;;;;;;5051254;28;20393;-45
2023/05/06 11:58:04;;;;;;;2.50;2.00;;;;;;;;;;5050974;28;20764;-45
2023/05/06 12:00:30;;;;;;;5.03;2.67;;;;;;;;;;5051111;28;20501;-45
2023/05/06 12:02:56;;;;;;;5.10;3.23;;;;;;;;;;5050814;28;20437;-46
2023/05/06 12:05:23;;;;;;;3.30;2.50;;;;;;;;;;5051058;28;20405;-44
2023/05/06 12:07:49;;;;;;;3.23;2.27;;;;;;;;;;5050989;28;20409;-44
2023/05/06 12:10:16;;;;;;;3.20;2.37;;;;;;;;;;5049512;28;20432;-45
2023/05/06 12:12:42;;;;;;;4.17;3.30;;;;;;;;;;5047985;28;20461;-44
2023/05/06 12:15:09;;;;;;;6.67;2.80;;;;;;;;;;5050684;28;20469;-44
2023/05/06 12:17:37;;;;;;;2.20;1.73;;;;;;;;;;5050724;28;20406;-45
2023/05/06 12:20:03;;;;;;;4.20;2.40;;;;;;;;;;5050697;28;20421;-45
2023/05/06 12:22:29;;;;;;;4.47;3.20;;;;;;;;;;5050439;28;20915;-45
2023/05/06 12:24:56;;;;;;;7.07;2.70;;;;;;;;;;5049720;28;20429;-45
2023/05/06 12:27:32;;;;;;;4.60;3.40;;;;;;;;;;5047360;28;20452;-46
2023/05/06 12:29:59;;;;;;;2.03;1.77;;;;;;;;;;5050721;28;20463;-44
2023/05/06 12:32:25;;;;;;;4.17;3.10;;;;;;;;;;5049750;28;20457;-46
2023/05/06 12:34:52;;;;;;;2.33;1.93;;;;;;;;;;5049989;28;20508;-45
2023/05/06 12:37:27;;;;;;;4.30;2.80;;;;;;;;;;5050277;28;20888;-45
2023/05/06 12:39:53;;;;;;;2.30;2.10;;;;;;;;;;5050398;28;20398;-46
2023/05/06 12:42:20;;;;;;;4.63;2.70;;;;;;;;;;5050294;28;20433;-45
2023/05/06 12:44:46;;;;;;;8.23;2.30;;;;;;;;;;5050257;28;20519;-44
2023/05/06 12:47:19;;;;;;;4.50;3.53;;;;;;;;;;5048212;28;20489;-45
2023/05/06 12:49:49;;;;;;;3.67;2.60;;;;;;;;;;5050415;28;20410;-44
2023/05/06 12:52:17;;;;;;;3.70;2.70;;;;;;;;;;5049864;28;20536;-45
2023/05/06 12:54:43;;;;;;;3.93;2.43;;;;;;;;;;5048359;28;20433;-45
2023/05/06 12:57:09;;;;;;;5.27;2.60;;;;;;;;;;5050127;28;20940;-44
2023/05/06 12:59:36;;;;;;;4.13;2.13;;;;;;;;;;5050337;28;20405;-45
2023/05/06 13:02:02;;;;;;;3.13;2.07;;;;;;;;;;5050182;28;20401;-45
2023/05/06 13:04:29;;;;;;;4.00;2.30;;;;;;;;;;5049878;28;20433;-44
2023/05/06 13:06:55;;;;;;;3.03;2.43;;;;;;;;;;5050119;28;21442;-46
2023/05/06 13:09:23;;;;;;;4.07;2.20;;;;;;;;;;5050060;28;20473;-44
2023/05/06 13:11:50;;;;;;;3.67;2.37;;;;;;;;;;5049990;28;20449;-44
2023/05/06 13:14:15;;;;;;;4.83;3.07;;;;;;;;;;5047652;28;20449;-45
2023/05/06 13:16:42;;;;;;;5.07;3.30;;;;;;;;;;5049881;28;20454;-44
2023/05/06 13:19:10;;;;;;;5.53;1.90;;;;;;;;;;5047583;28;20908;-45
2023/05/06 13:21:37;;;;;;;4.50;2.40;;;;;;;;;;5049734;28;20405;-44
2023/05/06 13:24:06;;;;;;;4.00;1.97;;;;;;;;;;5049573;28;20425;-46
2023/05/06 13:26:32;;;;;;;2.90;1.97;;;;;;;;;;5049795;28;20409;-47
2023/05/06 13:28:58;;;;;;;4.00;2.37;;;;;;;;;;5049659;28;20485;-45
2023/05/06 13:31:26;;;;;;;2.90;1.97;;;;;;;;;;5049715;28;20556;-47
2023/05/06 13:33:52;;;;;;;2.27;1.70;;;;;;;;;;5049368;28;20417;-45
2023/05/06 13:36:18;;;;;;;3.17;2.40;;;;;;;;;;5049514;28;20488;-44
2023/05/06 13:38:43;;;;;;;3.33;2.43;;;;;;;;;;5049512;28;20398;-44
2023/05/06 13:41:09;;;;;;;2.53;2.23;;;;;;;;;;5049538;28;20402;-46
2023/05/06 13:43:35;;;;;;;2.67;1.87;;;;;;;;;;5048192;27;20810;-45
2023/05/06 13:46:02;;;;;;;4.00;1.73;;;;;;;;;;5048603;28;20431;-45
2023/05/06 13:48:28;;;;;;;3.97;2.40;;;;;;;;;;5049391;28;20390;-45
2023/05/06 13:50:54;;;;;;;4.10;2.13;;;;;;;;;;5049261;28;20404;-46
2023/05/06 13:53:21;;;;;;;4.53;2.77;;;;;;;;;;5049006;28;20437;-45
2023/05/06 13:55:49;;;;;;;3.30;2.50;;;;;;;;;;5049367;28;20406;-45
2023/05/06 13:58:16;;;;;;;2.47;2.03;;;;;;;;;;5049142;28;20413;-46
2023/05/06 14:00:42;;;;;;;4.50;2.40;;;;;;;;;;5049336;28;20956;-45
2023/05/06 14:03:08;;;;;;;8.50;3.07;;;;;;;;;;5047958;28;20512;-45
2023/05/06 14:05:34;;;;;;;5.00;2.33;;;;;;;;;;5049183;28;20415;-45
2023/05/06 14:08:00;;;;;;;2.70;2.20;;;;;;;;;;5049065;28;20406;-45
2023/05/06 14:10:26;;;;;;;6.97;2.07;;;;;;;;;;5049160;28;20405;-44
2023/05/06 14:12:54;;;;;;;2.80;2.00;;;;;;;;;;5046541;28;20552;-46
2023/05/06 14:15:21;;;;;;;6.03;3.53;;;;;;;;;;5047133;28;20852;-45
2023/05/06 14:17:47;;;;;;;2.37;2.00;;;;;;;;;;5048787;28;20488;-45
2023/05/06 14:20:14;;;;;;;2.57;2.00;;;;;;;;;;5048873;28;20457;-45
2023/05/06 14:22:40;;;;;;;4.13;3.20;;;;;;;;;;5048641;28;20454;-44
2023/05/06 14:25:09;;;;;;;2.47;1.90;;;;;;;;;;5048797;28;20478;-45
2023/05/06 14:27:35;;;;;;;3.83;2.77;;;;;;;;;;5048838;28;20405;-45